Time;durP1;ratioP1;P1;durP2;ratioP2;P2;SDS_P1;SDS_P2;PMS_P1;PMS_P2;Temp;Humidity;BMP_temperature;BMP_pressure;BME280_temperature;BME280_humidity;BME280_pressure;Samples;Min_cycle;Max_cycle;Signal;HPM_P1;HPM_P2
2022/04/02 00:00:23;;;;;;;16.65;8.82;;;1.10;99.90;;;;;;5089310;28;20115;-74
2022/04/02 00:02:48;;;;;;;17.48;8.68;;;1.10;99.90;;;;;;5088187;28;20067;-73
2022/04/02 00:05:14;;;;;;;18.75;9.57;;;1.00;99.90;;;;;;5071276;28;20429;-74
2022/04/02 00:07:39;;;;;;;16.65;8.73;;;1.00;99.90;;;;;;5088098;28;20042;-74
2022/04/02 00:10:07;;;;;;;16.52;8.75;;;1.10;99.90;;;;;;5087780;28;20021;-73
2022/04/02 00:12:32;;;;;;;16.83;8.40;;;1.10;99.90;;;;;;5086735;28;20025;-73
2022/04/02 00:14:58;;;;;;;13.98;5.63;;;1.00;99.90;;;;;;5083086;28;20032;-73
2022/04/02 00:17:24;;;;;;;12.32;5.80;;;1.10;99.90;;;;;;5084456;28;20035;-73
2022/04/02 00:19:49;;;;;;;11.15;5.32;;;1.20;99.90;;;;;;5083489;28;20472;-73
2022/04/02 00:22:16;;;;;;;9.98;4.75;;;1.20;99.90;;;;;;5082880;28;20482;-73
2022/04/02 00:24:42;;;;;;;6.55;4.13;;;1.30;99.90;;;;;;5081907;28;20020;-72
2022/04/02 00:27:07;;;;;;;8.05;4.70;;;1.30;99.90;;;;;;5083509;28;20059;-73
2022/04/02 00:29:35;;;;;;;6.90;4.00;;;1.30;99.90;;;;;;5082643;28;20046;-72
2022/04/02 00:32:01;;;;;;;7.28;4.03;;;1.40;99.90;;;;;;5083703;28;20100;-73
2022/04/02 00:34:26;;;;;;;7.55;3.55;;;1.30;99.90;;;;;;5084862;28;20024;-74
2022/04/02 00:36:52;;;;;;;10.13;4.20;;;1.30;99.90;;;;;;5083856;28;20387;-73
2022/04/02 00:39:20;;;;;;;7.85;4.05;;;1.40;99.90;;;;;;5068987;28;20115;-73
2022/04/02 00:41:45;;;;;;;8.20;3.63;;;1.40;99.90;;;;;;5086985;28;20020;-73
2022/04/02 00:44:13;;;;;;;9.10;4.10;;;1.40;99.90;;;;;;5086036;28;20017;-73
2022/04/02 00:46:41;;;;;;;9.15;4.53;;;1.40;99.90;;;;;;5087698;28;20028;-73
2022/04/02 00:49:07;;;;;;;6.68;3.55;;;1.40;99.90;;;;;;5088371;28;20021;-74
2022/04/02 00:51:33;;;;;;;6.38;3.47;;;1.40;99.90;;;;;;5090760;28;20088;-73
2022/04/02 00:53:59;;;;;;;6.78;3.55;;;1.40;99.90;;;;;;5091186;28;20032;-74
2022/04/02 00:56:25;;;;;;;6.28;3.95;;;1.40;99.90;;;;;;5090543;28;20051;-75
2022/04/02 00:58:51;;;;;;;7.28;3.80;;;1.30;99.90;;;;;;5091536;28;20033;-74
2022/04/02 01:01:16;;;;;;;10.32;4.28;;;1.30;99.90;;;;;;5091149;28;20035;-74
2022/04/02 01:03:43;;;;;;;8.10;3.63;;;1.40;99.90;;;;;;5090832;28;20036;-74
2022/04/02 01:06:10;;;;;;;11.25;4.15;;;1.30;99.90;;;;;;5071113;28;20028;-74
2022/04/02 01:08:37;;;;;;;12.85;4.07;;;1.30;99.90;;;;;;5081457;28;20024;-74
2022/04/02 01:11:03;;;;;;;7.05;3.45;;;1.30;99.90;;;;;;5081851;28;20024;-74
2022/04/02 01:13:29;;;;;;;9.00;3.28;;;1.40;99.90;;;;;;5080164;28;20013;-74
2022/04/02 01:15:56;;;;;;;9.20;3.35;;;1.30;99.90;;;;;;5080928;28;20071;-75
2022/04/02 01:18:22;;;;;;;5.95;3.45;;;1.40;99.90;;;;;;5080993;28;20543;-75
2022/04/02 01:20:48;;;;;;;9.02;3.42;;;1.30;99.90;;;;;;5081063;28;20107;-74
2022/04/02 01:23:14;;;;;;;6.80;3.60;;;1.40;99.90;;;;;;5062837;28;20025;-74
2022/04/02 01:25:40;;;;;;;8.55;3.10;;;1.30;99.90;;;;;;5080943;28;20023;-75
2022/04/02 01:28:06;;;;;;;7.70;3.63;;;1.30;99.90;;;;;;5080876;28;20028;-75
2022/04/02 01:30:32;;;;;;;7.55;3.75;;;1.30;99.90;;;;;;5081334;28;20025;-75
2022/04/02 01:32:58;;;;;;;7.75;3.55;;;1.30;99.90;;;;;;5081413;28;20051;-74
2022/04/02 01:35:25;;;;;;;4.40;3.35;;;1.30;99.90;;;;;;5081737;28;20115;-74
2022/04/02 01:37:51;;;;;;;7.93;3.50;;;1.30;99.90;;;;;;5081842;28;20069;-75
2022/04/02 01:40:18;;;;;;;5.18;3.28;;;1.30;99.90;;;;;;5080446;28;20032;-75
2022/04/02 01:42:45;;;;;;;7.30;3.83;;;1.30;99.90;;;;;;5081972;28;20020;-75
2022/04/02 01:45:13;;;;;;;5.13;3.53;;;1.30;99.90;;;;;;5081061;28;20013;-75
2022/04/02 01:47:39;;;;;;;6.75;3.13;;;1.30;99.90;;;;;;5081168;28;20080;-75
2022/04/02 01:50:06;;;;;;;6.28;3.63;;;1.30;99.90;;;;;;5082016;28;20048;-75
2022/04/02 01:52:32;;;;;;;8.43;3.33;;;1.30;99.90;;;;;;5081105;28;20029;-76
2022/04/02 01:54:58;;;;;;;9.60;3.53;;;1.30;99.90;;;;;;5082162;28;20074;-75
2022/04/02 01:57:24;;;;;;;8.20;3.78;;;1.40;99.90;;;;;;5082651;28;20069;-75
2022/04/02 01:59:50;;;;;;;7.25;3.40;;;1.30;99.90;;;;;;5082217;28;20466;-76
2022/04/02 02:02:16;;;;;;;6.32;3.80;;;1.30;99.90;;;;;;5082000;28;20070;-74
2022/04/02 02:04:51;;;;;;;7.07;3.13;;;1.30;99.90;;;;;;5082551;28;20082;-74
2022/04/02 02:07:17;;;;;;;6.13;3.38;;;1.20;99.90;;;;;;5082422;28;20037;-74
2022/04/02 02:09:43;;;;;;;4.88;3.28;;;1.30;99.90;;;;;;5082056;28;20020;-75
2022/04/02 02:12:09;;;;;;;7.00;3.40;;;1.20;99.90;;;;;;5082253;28;20044;-75
2022/04/02 02:14:35;;;;;;;8.20;3.45;;;1.20;99.90;;;;;;5080538;28;20025;-75
2022/04/02 02:17:00;;;;;;;6.40;3.33;;;1.30;99.90;;;;;;5082632;28;20031;-75
2022/04/02 02:19:26;;;;;;;7.20;3.50;;;1.20;99.90;;;;;;5082417;28;20059;-75
2022/04/02 02:21:51;;;;;;;7.57;3.33;;;1.30;99.90;;;;;;5082053;28;20050;-75
2022/04/02 02:24:17;;;;;;;7.50;3.28;;;1.20;99.90;;;;;;5080915;28;20028;-75
2022/04/02 02:26:43;;;;;;;6.00;3.47;;;1.20;99.90;;;;;;5079085;28;20024;-75
2022/04/02 02:29:09;;;;;;;7.55;2.97;;;1.20;99.90;;;;;;5079100;28;20021;-74
2022/04/02 02:31:35;;;;;;;5.30;3.42;;;1.30;99.90;;;;;;5078816;28;20035;-74
2022/04/02 02:36:48;;;;;;;8.15;3.20;;;1.30;99.90;;;;;;5079092;28;20032;-75
2022/04/02 02:39:13;;;;;;;7.25;2.97;;;1.30;99.90;;;;;;5080382;28;20542;-74
2022/04/02 02:41:39;;;;;;;4.88;2.83;;;1.20;99.90;;;;;;5081025;28;20071;-75
2022/04/02 02:44:04;;;;;;;8.05;3.15;;;1.30;99.90;;;;;;5079608;28;20386;-75
2022/04/02 02:46:32;;;;;;;7.25;3.22;;;1.30;99.90;;;;;;5079842;28;20032;-75
2022/04/02 02:48:57;;;;;;;4.68;2.88;;;1.30;99.90;;;;;;5081149;28;20036;-75
2022/04/02 02:51:23;;;;;;;5.97;2.85;;;1.30;99.90;;;;;;5081565;28;20031;-74
2022/04/02 02:53:49;;;;;;;8.32;2.95;;;1.30;99.90;;;;;;5081296;28;20035;-74
2022/04/02 02:56:15;;;;;;;4.43;2.70;;;1.30;99.90;;;;;;5083521;28;20058;-73
2022/04/02 02:58:40;;;;;;;2.97;2.45;;;1.20;99.90;;;;;;5082809;28;20532;-75
2022/04/02 03:01:06;;;;;;;3.40;2.60;;;1.20;99.90;;;;;;5081072;28;20025;-74
2022/04/02 03:03:32;;;;;;;6.90;2.60;;;1.20;99.90;;;;;;5083279;28;20382;-74
2022/04/02 03:05:57;;;;;;;4.22;3.08;;;1.20;99.90;;;;;;5081685;28;20032;-75
2022/04/02 03:08:23;;;;;;;3.95;2.65;;;1.20;99.90;;;;;;5081583;28;20100;-74
2022/04/02 03:10:49;;;;;;;7.50;3.15;;;1.20;99.90;;;;;;5081736;28;20029;-74
2022/04/02 03:13:15;;;;;;;4.28;2.65;;;1.20;99.90;;;;;;5081497;28;20019;-73
2022/04/02 03:15:41;;;;;;;3.63;2.45;;;1.20;99.90;;;;;;5082765;28;20382;-75
2022/04/02 03:18:08;;;;;;;5.43;2.95;;;1.20;99.90;;;;;;5066241;28;20028;-75
2022/04/02 03:20:35;;;;;;;5.90;2.95;;;1.20;99.90;;;;;;5083604;28;20103;-75
2022/04/02 03:23:01;;;;;;;3.72;2.53;;;1.20;99.90;;;;;;5084321;28;20024;-75
2022/04/02 03:25:27;;;;;;;4.07;2.78;;;1.20;99.90;;;;;;5083740;28;20533;-75
2022/04/02 03:27:53;;;;;;;7.55;3.08;;;1.20;99.90;;;;;;5084840;28;20020;-75
2022/04/02 03:30:21;;;;;;;4.55;3.00;;;1.20;99.90;;;;;;5082102;28;20021;-73
2022/04/02 03:32:48;;;;;;;5.82;3.20;;;1.20;99.90;;;;;;5077445;28;20025;-73
2022/04/02 03:35:14;;;;;;;4.57;2.65;;;1.20;99.90;;;;;;5082902;28;20025;-75
2022/04/02 03:37:41;;;;;;;4.70;2.88;;;1.20;99.90;;;;;;5084042;28;20551;-75
2022/04/02 03:40:10;;;;;;;3.35;2.58;;;1.20;99.90;;;;;;5083881;28;20045;-75
2022/04/02 03:42:37;;;;;;;4.43;2.53;;;1.20;99.90;;;;;;5080866;28;20023;-74
2022/04/02 03:45:04;;;;;;;4.82;2.55;;;1.20;99.90;;;;;;5076817;28;20058;-74
2022/04/02 03:47:31;;;;;;;5.47;2.83;;;1.10;99.90;;;;;;5077375;28;20016;-74
2022/04/02 03:49:57;;;;;;;4.80;3.17;;;1.10;99.90;;;;;;5076243;28;20021;-74
2022/04/02 03:52:22;;;;;;;5.95;2.55;;;1.10;99.90;;;;;;5077732;28;20032;-74
2022/04/02 03:54:47;;;;;;;5.68;2.90;;;1.10;99.90;;;;;;5076220;28;20067;-74
2022/04/02 03:57:14;;;;;;;7.07;3.13;;;1.10;99.90;;;;;;5076197;28;20119;-74
2022/04/02 03:59:40;;;;;;;5.70;3.15;;;1.10;99.90;;;;;;5059310;28;20498;-75
2022/04/02 04:02:07;;;;;;;3.90;2.55;;;1.10;99.90;;;;;;5076861;28;20037;-74
2022/04/02 04:04:33;;;;;;;7.40;2.70;;;1.10;99.90;;;;;;5077449;28;20046;-74
2022/04/02 04:06:59;;;;;;;6.45;2.92;;;1.10;99.90;;;;;;5075990;28;20048;-74
2022/04/02 04:09:25;;;;;;;9.52;2.97;;;1.10;99.90;;;;;;5077268;28;20498;-74
2022/04/02 04:11:51;;;;;;;8.23;3.28;;;1.10;99.90;;;;;;5075497;28;20601;-74
2022/04/02 04:14:17;;;;;;;5.18;2.95;;;1.10;99.90;;;;;;5076486;28;20068;-74
2022/04/02 04:16:43;;;;;;;9.35;3.35;;;1.10;99.90;;;;;;5075649;28;20056;-74
2022/04/02 04:19:09;;;;;;;5.78;2.88;;;1.10;99.90;;;;;;5074792;28;20025;-74
2022/04/02 04:21:35;;;;;;;5.80;2.78;;;1.10;99.90;;;;;;5058220;28;20050;-74
2022/04/02 04:24:01;;;;;;;4.72;2.70;;;1.10;99.90;;;;;;5074697;28;20024;-74
2022/04/02 04:26:27;;;;;;;6.85;2.88;;;1.10;99.90;;;;;;5076334;28;20021;-74
2022/04/02 04:28:52;;;;;;;6.18;2.70;;;1.00;99.90;;;;;;5075206;28;20031;-73
2022/04/02 04:31:18;;;;;;;5.15;3.10;;;1.00;99.90;;;;;;5076160;28;20475;-74
2022/04/02 04:33:44;;;;;;;9.02;3.60;;;1.10;99.90;;;;;;5081983;28;20025;-74
2022/04/02 04:36:10;;;;;;;8.82;3.72;;;1.00;99.90;;;;;;5081606;28;20017;-74
2022/04/02 04:38:36;;;;;;;9.05;3.75;;;1.10;99.90;;;;;;5079546;28;20024;-74
2022/04/02 04:41:02;;;;;;;7.53;3.28;;;1.00;99.90;;;;;;5081953;28;20021;-74
2022/04/02 04:43:28;;;;;;;8.02;3.20;;;1.00;99.90;;;;;;5081289;28;20028;-74
2022/04/02 04:45:53;;;;;;;7.28;3.63;;;1.00;99.90;;;;;;5081661;28;20028;-74
2022/04/02 04:48:20;;;;;;;5.97;3.05;;;1.00;99.90;;;;;;5081645;28;20027;-75
2022/04/02 04:50:47;;;;;;;5.40;3.33;;;1.00;99.90;;;;;;5081136;28;20020;-75
2022/04/02 04:53:13;;;;;;;7.00;3.50;;;1.00;99.90;;;;;;5081840;28;20055;-74
2022/04/02 04:55:39;;;;;;;8.32;3.20;;;1.10;99.90;;;;;;5081852;28;20032;-75
2022/04/02 04:58:04;;;;;;;8.35;3.28;;;1.10;99.90;;;;;;5080818;28;20050;-74
2022/04/02 05:00:30;;;;;;;3.88;3.00;;;1.10;99.90;;;;;;5081427;28;20394;-74
2022/04/02 05:02:55;;;;;;;7.32;4.15;;;1.10;99.90;;;;;;5080440;28;20452;-74
2022/04/02 05:05:21;;;;;;;5.43;3.40;;;1.10;99.90;;;;;;5081858;28;20028;-74
2022/04/02 05:07:47;;;;;;;7.65;3.40;;;1.10;99.90;;;;;;5080792;28;20051;-74
2022/04/02 05:10:12;;;;;;;7.28;3.40;;;1.10;99.90;;;;;;5079947;28;20020;-75
2022/04/02 05:12:38;;;;;;;7.07;3.22;;;1.00;99.90;;;;;;5079719;28;20470;-74
2022/04/02 05:15:08;;;;;;;5.20;3.63;;;1.00;99.90;;;;;;5080724;28;20035;-75
2022/04/02 05:17:34;;;;;;;5.75;3.40;;;1.00;99.90;;;;;;5081294;28;20031;-74
2022/04/02 05:19:59;;;;;;;5.63;3.22;;;1.00;99.90;;;;;;5080907;28;20032;-75
2022/04/02 05:22:25;;;;;;;7.88;3.50;;;1.00;99.90;;;;;;5081313;28;20025;-74
2022/04/02 05:24:50;;;;;;;7.18;4.05;;;1.00;99.90;;;;;;5079398;28;20042;-74
2022/04/02 05:27:16;;;;;;;5.35;3.08;;;1.00;99.90;;;;;;5081024;28;20021;-75
2022/04/02 05:29:41;;;;;;;5.90;3.70;;;1.00;99.90;;;;;;5081194;28;20160;-75
2022/04/02 05:32:07;;;;;;;5.93;3.58;;;1.00;99.90;;;;;;5081143;28;20041;-74
2022/04/02 05:34:33;;;;;;;4.80;2.95;;;1.00;99.90;;;;;;5079388;28;20020;-75
2022/04/02 05:36:58;;;;;;;7.20;3.47;;;1.00;99.90;;;;;;5080300;28;20078;-74
2022/04/02 05:39:24;;;;;;;5.25;3.35;;;1.00;99.90;;;;;;5080539;28;20032;-75
2022/04/02 05:41:51;;;;;;;5.72;4.03;;;1.00;99.90;;;;;;5080000;28;20024;-73
2022/04/02 05:44:17;;;;;;;4.60;3.10;;;1.10;99.90;;;;;;5079658;28;20107;-75
2022/04/02 05:46:43;;;;;;;10.52;3.25;;;1.10;99.90;;;;;;5080159;28;20028;-75
2022/04/02 05:49:08;;;;;;;9.93;4.05;;;1.10;99.90;;;;;;5079918;28;20020;-74
2022/04/02 05:51:34;;;;;;;9.38;3.40;;;1.10;99.90;;;;;;5080938;28;20025;-74
2022/04/02 05:53:59;;;;;;;5.00;3.75;;;1.10;99.90;;;;;;5081442;28;20024;-74
2022/04/02 05:56:26;;;;;;;8.65;3.60;;;1.10;99.90;;;;;;5082283;28;20103;-74
2022/04/02 05:58:52;;;;;;;6.57;3.50;;;1.10;99.90;;;;;;5081231;28;20032;-74
2022/04/02 06:01:18;;;;;;;6.22;3.63;;;1.10;99.90;;;;;;5081400;28;20029;-74
2022/04/02 06:03:44;;;;;;;6.70;3.72;;;1.10;99.90;;;;;;5081047;28;20112;-75
2022/04/02 06:06:10;;;;;;;5.10;3.20;;;1.10;99.90;;;;;;5064730;28;20013;-75
2022/04/02 06:08:35;;;;;;;6.85;3.90;;;1.20;99.90;;;;;;5064295;28;20021;-74
2022/04/02 06:11:01;;;;;;;7.65;4.18;;;1.10;99.90;;;;;;5082510;28;20024;-75
2022/04/02 06:13:27;;;;;;;3.97;3.22;;;1.20;99.90;;;;;;5080278;28;20111;-74
2022/04/02 06:15:53;;;;;;;6.35;3.63;;;1.20;99.90;;;;;;5082444;28;20084;-75
2022/04/02 06:18:19;;;;;;;8.32;3.50;;;1.20;99.90;;;;;;5080729;28;20031;-75
2022/04/02 06:20:45;;;;;;;7.15;3.78;;;1.20;99.90;;;;;;5082540;28;20036;-74
2022/04/02 06:23:11;;;;;;;7.30;3.47;;;1.30;99.90;;;;;;5081903;28;20060;-74
2022/04/02 06:25:37;;;;;;;6.20;3.40;;;1.30;99.90;;;;;;5086279;28;20464;-74
2022/04/02 06:28:02;;;;;;;6.90;4.13;;;1.30;99.90;;;;;;5086880;28;20025;-74
2022/04/02 06:30:28;;;;;;;4.82;3.22;;;1.30;99.90;;;;;;5084334;28;20028;-74
2022/04/02 06:32:54;;;;;;;8.93;3.75;;;1.30;99.90;;;;;;5085181;28;20036;-74
2022/04/02 06:35:20;;;;;;;6.63;4.05;;;1.40;99.90;;;;;;5086394;28;20107;-73
2022/04/02 06:37:46;;;;;;;6.53;3.50;;;1.40;99.90;;;;;;5086976;28;20513;-74
2022/04/02 06:40:12;;;;;;;7.15;3.92;;;1.40;99.90;;;;;;5085829;28;20036;-74
2022/04/02 06:42:38;;;;;;;5.93;3.85;;;1.40;99.90;;;;;;5086091;28;20024;-74
2022/04/02 06:45:04;;;;;;;5.38;3.42;;;1.50;99.90;;;;;;5086121;28;20084;-74
2022/04/02 06:47:31;;;;;;;8.13;4.32;;;1.50;99.90;;;;;;5085817;28;20024;-76
2022/04/02 06:49:58;;;;;;;6.18;3.88;;;1.50;99.90;;;;;;5085476;28;20028;-75
2022/04/02 06:52:24;;;;;;;7.93;3.90;;;1.50;99.90;;;;;;5068973;28;20074;-75
2022/04/02 06:54:50;;;;;;;6.05;3.17;;;1.60;99.90;;;;;;5087450;28;20421;-74
2022/04/02 06:57:18;;;;;;;6.32;3.72;;;1.60;99.90;;;;;;5086952;28;20104;-75
2022/04/02 06:59:44;;;;;;;6.95;3.80;;;1.60;99.90;;;;;;5085839;28;20081;-75
2022/04/02 07:02:10;;;;;;;6.30;3.45;;;1.70;99.90;;;;;;5085140;28;20141;-75
2022/04/02 07:04:39;;;;;;;6.55;3.67;;;1.70;99.90;;;;;;5086457;28;20016;-75
2022/04/02 07:07:05;;;;;;;6.38;3.97;;;1.80;99.90;;;;;;5084696;28;20024;-75
2022/04/02 07:09:30;;;;;;;7.90;4.40;;;1.80;99.90;;;;;;5086853;28;20073;-75
2022/04/02 07:11:56;;;;;;;7.28;3.78;;;2.00;99.90;;;;;;5087406;28;20040;-74
2022/04/02 07:14:22;;;;;;;9.57;4.10;;;1.90;99.90;;;;;;5085327;28;20502;-76
2022/04/02 07:16:47;;;;;;;12.07;4.13;;;1.90;99.90;;;;;;5087694;28;20037;-75
2022/04/02 07:19:14;;;;;;;7.85;3.58;;;1.90;99.90;;;;;;5087711;28;20546;-75
2022/04/02 07:21:42;;;;;;;5.78;3.50;;;2.00;99.90;;;;;;5086379;28;20036;-75
2022/04/02 07:24:11;;;;;;;5.88;3.60;;;2.00;99.90;;;;;;5087876;28;20085;-75
2022/04/02 07:26:38;;;;;;;5.75;4.05;;;2.00;99.90;;;;;;5088221;28;20506;-75
2022/04/02 07:29:03;;;;;;;11.10;4.30;;;2.00;99.90;;;;;;5090256;28;20035;-75
2022/04/02 07:31:29;;;;;;;5.10;3.47;;;2.10;99.90;;;;;;5090609;28;20024;-74
2022/04/02 07:33:55;;;;;;;6.40;3.40;;;2.10;99.90;;;;;;5093885;28;20035;-74
2022/04/02 07:37:00;;;;;;;11.43;4.13;;;2.20;99.90;;;;;;5095264;28;20102;-74
2022/04/02 07:39:37;;;;;;;6.13;4.00;;;2.30;99.90;;;;;;5094976;28;20024;-74
2022/04/02 07:42:12;;;;;;;9.98;4.32;;;2.40;99.90;;;;;;5094295;28;20025;-74
2022/04/02 07:45:16;;;;;;;8.05;3.67;;;2.40;99.90;;;;;;5095958;28;20052;-74
2022/04/02 07:47:50;;;;;;;6.25;3.92;;;2.50;99.90;;;;;;5096761;28;20107;-74
2022/04/02 07:50:16;;;;;;;8.50;4.22;;;2.70;99.90;;;;;;5094501;28;20092;-74
2022/04/02 07:52:45;;;;;;;7.60;3.97;;;2.80;99.90;;;;;;5093654;28;20028;-73
2022/04/02 07:55:12;;;;;;;7.25;4.07;;;2.80;99.90;;;;;;5095567;28;20032;-74
2022/04/02 07:57:40;;;;;;;7.85;4.18;;;3.00;99.90;;;;;;5096343;28;20025;-74
2022/04/02 08:00:10;;;;;;;12.27;4.22;;;3.10;99.90;;;;;;5095329;28;20039;-74
2022/04/02 08:02:38;;;;;;;8.25;4.13;;;3.20;99.90;;;;;;5087478;28;20541;-75
2022/04/02 08:05:07;;;;;;;7.15;3.65;;;3.10;99.90;;;;;;5083367;28;20016;-75
2022/04/02 08:07:35;;;;;;;6.53;4.68;;;3.30;99.90;;;;;;5081841;28;20020;-75
2022/04/02 08:10:05;;;;;;;8.55;4.65;;;3.40;99.90;;;;;;5082429;28;20031;-75
2022/04/02 08:12:35;;;;;;;8.07;4.10;;;3.50;99.90;;;;;;5082774;28;20028;-76
2022/04/02 08:15:03;;;;;;;7.40;3.97;;;3.40;99.90;;;;;;5081797;28;20024;-75
2022/04/02 08:17:31;;;;;;;5.55;3.88;;;3.60;99.90;;;;;;5082655;28;20027;-74
2022/04/02 08:19:58;;;;;;;5.55;3.55;;;3.60;99.90;;;;;;5078650;28;20040;-75
2022/04/02 08:22:24;;;;;;;6.18;4.57;;;3.60;99.90;;;;;;5078410;28;20398;-74
2022/04/02 08:24:50;;;;;;;7.47;4.38;;;4.60;99.90;;;;;;5079185;28;20092;-75
2022/04/02 08:27:50;;;;;;;6.53;4.13;;;4.60;99.90;;;;;;5079613;28;20087;-74
2022/04/02 08:30:22;;;;;;;9.20;4.20;;;4.10;99.90;;;;;;5077594;28;20525;-75
2022/04/02 08:33:19;;;;;;;8.60;4.72;;;4.20;99.90;;;;;;5077890;28;20502;-74
2022/04/02 08:35:54;;;;;;;7.85;4.15;;;5.00;99.90;;;;;;5081484;28;20032;-74
2022/04/02 08:38:44;;;;;;;8.25;4.30;;;5.50;99.90;;;;;;5081263;28;20024;-74
2022/04/02 08:41:48;;;;;;;6.93;4.57;;;5.30;99.90;;;;;;5080952;28;20032;-75
2022/04/02 08:44:51;;;;;;;7.18;4.53;;;5.80;99.90;;;;;;5081850;28;20398;-75
2022/04/02 08:47:56;;;;;;;8.77;5.03;;;5.30;99.90;;;;;;5080227;28;20493;-74
2022/04/02 08:50:29;;;;;;;10.38;5.00;;;4.90;99.90;;;;;;5082085;28;20080;-74
2022/04/02 08:52:56;;;;;;;;;;;5.60;99.90;;;;;;5080900;28;20066;-74
2022/04/02 08:55:35;;;;;;;9.40;4.82;;;5.20;99.90;;;;;;5082237;28;19911;-74
2022/04/02 08:58:23;;;;;;;6.30;4.75;;;5.60;99.90;;;;;;5082629;28;20025;-74
2022/04/02 09:01:05;;;;;;;6.85;4.70;;;5.50;99.90;;;;;;5084459;28;20052;-75
2022/04/02 09:04:11;;;;;;;11.07;4.82;;;5.40;99.90;;;;;;5079372;28;20044;-74
2022/04/02 09:07:12;;;;;;;6.80;4.50;;;5.80;99.90;;;;;;5077152;28;20024;-74
2022/04/02 09:12:55;;;;;;;8.13;4.95;;;5.70;99.90;;;;;;5114590;27;20164;-74
2022/04/02 09:15:33;;;;;;;7.07;5.10;;;5.20;99.90;;;;;;5113294;28;20415;-74
2022/04/02 09:18:34;;;;;;;8.80;5.30;;;5.70;99.90;;;;;;5116967;28;20020;-75
2022/04/02 09:21:15;;;;;;;8.75;4.90;;;5.70;99.90;;;;;;5098682;28;20118;-74
2022/04/02 09:23:44;;;;;;;9.50;5.55;;;4.90;99.90;;;;;;5113376;28;20080;-75
2022/04/02 09:26:29;;;;;;;6.70;4.82;;;5.30;99.90;;;;;;5113847;28;20020;-74
2022/04/02 09:29:25;;;;;;;8.90;5.13;;;5.40;99.90;;;;;;5118923;28;20504;-74
2022/04/02 09:32:28;;;;;;;11.30;5.38;;;5.30;99.90;;;;;;5117921;28;20551;-73
2022/04/02 09:35:34;;;;;;;9.45;4.75;;;5.60;99.90;;;;;;5120477;28;20028;-75
2022/04/02 09:38:31;;;;;;;8.50;5.53;;;5.20;99.90;;;;;;5124122;28;20028;-74
2022/04/02 09:41:23;;;;;;;8.25;5.15;;;5.10;99.90;;;;;;5118392;28;20024;-75
2022/04/02 09:44:27;;;;;;;8.77;4.50;;;5.00;99.90;;;;;;5122148;28;20028;-75
2022/04/02 09:47:21;;;;;;;8.25;4.55;;;5.50;99.90;;;;;;5125790;28;20103;-74
2022/04/02 09:50:17;;;;;;;10.52;5.30;;;5.50;99.90;;;;;;5106198;28;20028;-74
2022/04/02 09:53:15;;;;;;;7.97;5.32;;;4.80;99.90;;;;;;5119767;28;20028;-74
2022/04/02 09:56:09;;;;;;;9.98;5.47;;;4.80;99.90;;;;;;5119963;28;20020;-75
2022/04/02 09:58:51;;;;;;;8.75;5.55;;;4.80;99.90;;;;;;5122448;28;20079;-74
2022/04/02 10:01:45;;;;;;;10.18;5.40;;;5.10;99.90;;;;;;5104449;28;20031;-76
2022/04/02 10:04:50;;;;;;;9.32;4.63;;;5.30;99.90;;;;;;5117805;28;20032;-74
2022/04/02 10:07:29;;;;;;;7.95;4.82;;;5.20;99.90;;;;;;5117687;28;20066;-74
2022/04/02 10:09:57;;;;;;;9.05;5.30;;;5.10;99.90;;;;;;5117418;28;20024;-74
2022/04/02 10:12:26;;;;;;;10.32;5.38;;;5.00;99.90;;;;;;5117070;28;20047;-73
2022/04/02 10:14:57;;;;;;;7.22;4.15;;;4.80;99.90;;;;;;5100834;28;20105;-73
2022/04/02 10:17:28;;;;;;;6.82;4.28;;;4.80;99.90;;;;;;5121063;28;20020;-73
2022/04/02 10:19:55;;;;;;;5.82;4.50;;;5.20;99.90;;;;;;5125380;28;20050;-74
2022/04/02 10:22:38;;;;;;;8.05;4.47;;;5.30;99.90;;;;;;5115897;28;20028;-73
2022/04/02 10:25:09;;;;;;;8.07;4.35;;;4.90;99.90;;;;;;5106744;28;20020;-74
2022/04/02 10:27:39;;;;;;;7.10;4.32;;;4.90;99.90;;;;;;5111848;28;20032;-74
2022/04/02 10:30:09;;;;;;;7.00;4.75;;;5.00;99.90;;;;;;5108596;28;20032;-74
2022/04/02 10:33:30;;;;;;;6.30;3.92;;;5.20;99.90;;;;;;5108891;28;20016;-75
2022/04/02 10:35:46;;;;;;;7.70;4.00;;;5.60;99.90;;;;;;5111178;28;20020;-75
2022/04/02 10:38:31;;;;;;;7.93;4.20;;;5.80;99.90;;;;;;5111942;28;20016;-75
2022/04/02 10:40:57;;;;;;;6.60;4.43;;;5.60;99.90;;;;;;5095202;28;20054;-74
2022/04/02 10:43:27;;;;;;;8.20;5.00;;;5.10;99.90;;;;;;5111848;28;20500;-73
2022/04/02 10:45:54;;;;;;;8.95;5.38;;;4.70;99.90;;;;;;5110246;28;20024;-74
2022/04/02 10:48:33;;;;;;;8.25;5.03;;;4.30;99.90;;;;;;5109642;28;20039;-74
2022/04/02 10:51:01;;;;;;;9.65;5.70;;;4.10;99.90;;;;;;5110088;28;20024;-74
2022/04/02 10:53:31;;;;;;;10.00;5.85;;;4.30;99.90;;;;;;5110062;28;20028;-74
2022/04/02 10:56:01;;;;;;;6.10;4.60;;;4.50;99.90;;;;;;5093240;28;20032;-75
2022/04/02 10:58:36;;;;;;;6.80;5.10;;;4.60;99.90;;;;;;5109867;28;20050;-75
2022/04/02 11:01:04;;;;;;;9.15;5.10;;;4.50;99.90;;;;;;5109557;28;20061;-75
2022/04/02 11:03:39;;;;;;;8.18;4.50;;;4.30;99.90;;;;;;5109370;28;20113;-75
2022/04/02 11:06:06;;;;;;;9.82;5.05;;;4.10;99.90;;;;;;5110697;28;20083;-75
2022/04/02 11:08:32;;;;;;;6.90;4.88;;;3.90;99.90;;;;;;5111205;28;20023;-75
2022/04/02 11:11:13;;;;;;;6.43;5.03;;;4.10;99.90;;;;;;5106697;28;20455;-74
2022/04/02 11:13:43;;;;;;;7.20;4.72;;;4.20;99.90;;;;;;5101731;28;20024;-74
2022/04/02 11:16:23;;;;;;;5.60;4.55;;;4.30;99.90;;;;;;5101783;28;20021;-74
2022/04/02 11:21:56;;;;;;;6.03;3.75;;;4.40;99.90;;;;;;5102102;28;20020;-75
2022/04/02 11:24:24;;;;;;;8.27;4.38;;;4.40;99.90;;;;;;5101357;28;20095;-74
2022/04/02 11:26:52;;;;;;;6.97;5.00;;;4.30;99.90;;;;;;5108319;28;20028;-75
2022/04/02 11:29:22;;;;;;;7.15;4.15;;;4.30;99.90;;;;;;5108074;28;20025;-74
2022/04/02 11:31:50;;;;;;;6.47;4.90;;;4.40;99.90;;;;;;5108481;28;20033;-75
2022/04/02 11:34:19;;;;;;;7.97;4.55;;;4.50;99.90;;;;;;5105051;28;20103;-74
2022/04/02 11:36:47;;;;;;;7.57;4.60;;;4.80;99.90;;;;;;5108105;28;20499;-75
2022/04/02 11:39:34;;;;;;;8.05;4.90;;;4.90;99.90;;;;;;5106567;28;20062;-75
2022/04/02 11:42:03;;;;;;;6.13;4.50;;;4.60;99.90;;;;;;5098596;28;20470;-74
2022/04/02 11:44:50;;;;;;;6.15;4.65;;;4.40;99.90;;;;;;5099879;28;20026;-74
2022/04/02 11:47:27;;;;;;;8.90;5.05;;;4.30;99.90;;;;;;5098399;28;20493;-74
2022/04/02 11:50:07;;;;;;;7.85;5.13;;;4.40;99.90;;;;;;5087841;28;20046;-73
2022/04/02 11:52:58;;;;;;;7.55;5.07;;;4.40;99.90;;;;;;5107578;28;20024;-74
2022/04/02 11:55:26;;;;;;;6.72;5.07;;;4.50;99.90;;;;;;5107003;28;20040;-74
2022/04/02 11:58:08;;;;;;;8.10;4.60;;;5.00;99.90;;;;;;5108090;28;20013;-75
2022/04/02 12:00:36;;;;;;;6.55;4.70;;;5.60;99.90;;;;;;5108019;28;20027;-75
2022/04/02 12:03:03;;;;;;;8.48;4.63;;;5.70;99.90;;;;;;5108820;28;20035;-74
2022/04/02 12:05:40;;;;;;;8.35;5.25;;;5.70;99.90;;;;;;5107917;28;20401;-75
2022/04/02 12:08:05;;;;;;;8.65;4.88;;;5.10;99.90;;;;;;5088802;28;20031;-74
2022/04/02 12:10:33;;;;;;;8.88;5.32;;;4.50;99.90;;;;;;5105920;28;20036;-74
2022/04/02 12:12:59;;;;;;;9.02;6.03;;;4.30;99.90;;;;;;5106071;28;20023;-74
2022/04/02 12:15:26;;;;;;;8.32;4.88;;;4.00;99.90;;;;;;5107710;28;20027;-74
2022/04/02 12:17:53;;;;;;;10.82;5.63;;;3.80;99.90;;;;;;5107034;28;20012;-75
2022/04/02 12:20:27;;;;;;;10.50;5.47;;;3.70;99.90;;;;;;5089293;28;20020;-75
2022/04/02 12:23:09;;;;;;;7.82;5.38;;;3.40;99.90;;;;;;5100446;28;20024;-75
2022/04/02 12:25:36;;;;;;;8.65;5.63;;;3.50;99.90;;;;;;5105857;28;20367;-75
2022/04/02 12:28:10;;;;;;;6.70;5.28;;;3.40;99.90;;;;;;5106792;28;20016;-75
2022/04/02 12:30:37;;;;;;;8.57;5.40;;;3.50;99.90;;;;;;5107005;28;20027;-75
2022/04/02 12:33:07;;;;;;;8.70;5.70;;;3.50;99.90;;;;;;5107938;28;20469;-75
2022/04/02 12:35:34;;;;;;;8.93;5.50;;;3.70;99.90;;;;;;5107528;28;20084;-75
2022/04/02 12:38:05;;;;;;;7.70;5.60;;;3.80;99.90;;;;;;5109052;28;20080;-74
2022/04/02 12:40:32;;;;;;;11.07;6.07;;;3.90;99.90;;;;;;5108036;28;20080;-74
2022/04/02 12:43:06;;;;;;;8.65;5.70;;;4.10;99.90;;;;;;5107494;28;20092;-74
2022/04/02 12:45:33;;;;;;;13.63;5.55;;;4.20;99.90;;;;;;5106824;28;20027;-75
2022/04/02 12:48:05;;;;;;;8.38;5.38;;;4.20;99.90;;;;;;5107935;28;20111;-75
2022/04/02 12:50:33;;;;;;;9.40;5.68;;;4.40;99.90;;;;;;5108000;28;20088;-75
2022/04/02 12:52:59;;;;;;;8.43;5.47;;;4.60;99.90;;;;;;5141298;27;20020;-75
2022/04/02 12:55:27;;;;;;;7.88;5.10;;;5.00;99.90;;;;;;5107999;28;20079;-74
2022/04/02 12:58:07;;;;;;;6.75;5.18;;;5.30;99.90;;;;;;5108076;28;20024;-75
2022/04/02 13:00:37;;;;;;;10.10;5.53;;;5.70;99.90;;;;;;5108983;28;20024;-74
2022/04/02 13:03:04;;;;;;;8.32;5.15;;;6.00;99.90;;;;;;5107890;28;20080;-75
2022/04/02 13:05:51;;;;;;;7.22;4.93;;;5.80;99.90;;;;;;5108171;28;20486;-74
2022/04/02 13:11:27;;;;;;;6.93;5.63;;;5.80;99.90;;;;;;5073556;28;20448;-81
2022/04/02 13:14:03;;;;;;;7.05;5.15;;;5.60;99.90;;;;;;5053080;28;20465;-81
2022/04/02 13:16:38;;;;;;;9.27;4.82;;;5.20;99.90;;;;;;5053391;28;20021;-80
2022/04/02 13:22:00;;;;;;;8.35;5.05;;;5.30;99.90;;;;;;5070880;28;20021;-81
2022/04/02 13:24:28;;;;;;;8.85;5.38;;;5.50;99.90;;;;;;5052969;28;20376;-82
2022/04/02 13:27:09;;;;;;;9.73;4.93;;;5.70;99.90;;;;;;5070494;28;20082;-81